createdAt,value
2017-11-29T00:00:47.683Z,95114.00
2017-11-29T00:03:15.281Z,95120.98
2017-11-29T00:05:42.863Z,95124.11
2017-11-29T00:08:10.512Z,95118.22
2017-11-29T00:10:38.063Z,95105.86
2017-11-29T00:13:05.667Z,95108.76
2017-11-29T00:15:33.281Z,95120.85
2017-11-29T00:18:00.842Z,95114.22
2017-11-29T00:20:28.402Z,95110.91
2017-11-29T00:22:56.004Z,95108.89
2017-11-29T00:25:23.551Z,95116.90
2017-11-29T00:30:41.582Z,95113.70
2017-11-29T00:33:09.372Z,95119.48
2017-11-29T00:35:36.935Z,95115.37
2017-11-29T00:38:04.546Z,95110.84
2017-11-29T00:40:32.107Z,95109.45
2017-11-29T00:42:59.703Z,95107.17
2017-11-29T00:45:27.323Z,95103.43
2017-11-29T00:47:54.892Z,95100.04
2017-11-29T00:50:22.459Z,95103.62
2017-11-29T00:52:50.065Z,95103.73
2017-11-29T00:55:17.635Z,95107.92
2017-11-29T00:57:45.196Z,95104.48
2017-11-29T01:00:12.789Z,95102.56
2017-11-29T01:02:40.382Z,95112.78
2017-11-29T01:05:07.964Z,95103.26
2017-11-29T01:07:35.531Z,95103.54
2017-11-29T01:10:03.106Z,95102.45
2017-11-29T01:12:30.716Z,95104.27
2017-11-29T01:14:58.253Z,95102.34
2017-11-29T01:17:25.815Z,95105.88
2017-11-29T01:19:53.393Z,95106.35
2017-11-29T01:22:20.948Z,95109.55
2017-11-29T01:24:48.550Z,95105.02
2017-11-29T01:27:16.128Z,95105.27
2017-11-29T01:29:43.732Z,95107.27
2017-11-29T01:32:11.421Z,95108.75
2017-11-29T01:34:39.039Z,95110.88
2017-11-29T01:37:06.712Z,95108.88
2017-11-29T01:39:34.296Z,95115.36
2017-11-29T01:42:01.858Z,95114.77
2017-11-29T01:44:29.464Z,95112.23
2017-11-29T01:46:57.059Z,95110.53
2017-11-29T01:49:24.619Z,95114.87
2017-11-29T01:51:52.191Z,95110.33
2017-11-29T01:54:19.823Z,95109.92
2017-11-29T01:56:47.381Z,95108.74
2017-11-29T01:59:14.960Z,95114.66
2017-11-29T02:01:42.516Z,95103.11
2017-11-29T02:04:10.142Z,95102.51
2017-11-29T02:06:40.564Z,95102.95
2017-11-29T02:09:08.185Z,95100.67
2017-11-29T02:11:35.775Z,95095.19
2017-11-29T02:14:03.325Z,95093.37
2017-11-29T02:16:30.940Z,95086.93
2017-11-29T02:18:58.500Z,95089.10
2017-11-29T02:21:26.076Z,95093.69
2017-11-29T02:23:53.671Z,95090.21
2017-11-29T02:26:21.306Z,95090.20
2017-11-29T02:28:48.963Z,95092.44
2017-11-29T02:31:16.598Z,95091.73
2017-11-29T02:33:44.294Z,95088.81
2017-11-29T02:36:12.065Z,95087.38
2017-11-29T02:38:39.693Z,95093.64
2017-11-29T02:41:19.189Z,95096.14
2017-11-29T02:43:47.296Z,95097.68
2017-11-29T02:46:15.277Z,95095.45
2017-11-29T02:48:42.916Z,95098.05
2017-11-29T02:51:10.737Z,95092.97
2017-11-29T02:53:38.329Z,95094.67
2017-11-29T02:56:05.925Z,95090.50
2017-11-29T02:58:33.596Z,95087.80
2017-11-29T03:01:01.166Z,95096.62
2017-11-29T03:03:28.743Z,95098.09
2017-11-29T03:05:56.374Z,95095.66
2017-11-29T03:08:24.014Z,95095.45
2017-11-29T03:10:51.641Z,95097.58
2017-11-29T03:13:19.319Z,95095.17
2017-11-29T03:15:46.940Z,95092.14
2017-11-29T03:18:14.488Z,95092.89
2017-11-29T03:20:42.049Z,95099.28
2017-11-29T03:23:09.745Z,95097.55
2017-11-29T03:25:37.379Z,95100.45
2017-11-29T03:28:04.944Z,95099.48
2017-11-29T03:30:32.526Z,95099.38
2017-11-29T03:33:00.138Z,95099.69
2017-11-29T03:35:27.716Z,95099.14
2017-11-29T03:37:55.306Z,95095.57
2017-11-29T03:40:22.882Z,95102.70
2017-11-29T03:42:50.470Z,95107.39
2017-11-29T03:45:18.126Z,95105.52
2017-11-29T03:47:45.715Z,95105.20
2017-11-29T03:50:13.285Z,95107.86
2017-11-29T03:52:40.902Z,95103.90
2017-11-29T03:55:08.502Z,95099.89
2017-11-29T03:57:36.079Z,95101.84
2017-11-29T04:00:04.348Z,95100.11
2017-11-29T04:02:32.017Z,95101.52
2017-11-29T04:04:59.619Z,95096.03
2017-11-29T04:07:27.223Z,95106.64
2017-11-29T04:09:54.796Z,95103.93
2017-11-29T04:12:23.258Z,95105.39
2017-11-29T04:14:50.957Z,95102.66
2017-11-29T04:17:18.581Z,95101.92
2017-11-29T04:19:46.244Z,95103.63
2017-11-29T04:22:13.917Z,95102.78
2017-11-29T04:24:41.532Z,95102.50
2017-11-29T04:27:09.312Z,95111.12
2017-11-29T04:29:36.960Z,95109.95
2017-11-29T04:32:04.525Z,95106.02
2017-11-29T04:34:32.086Z,95109.73
2017-11-29T04:36:59.711Z,95108.13
2017-11-29T04:39:27.298Z,95104.61
2017-11-29T04:41:54.884Z,95104.64
2017-11-29T04:44:22.495Z,95104.81
2017-11-29T04:46:50.064Z,95100.65
2017-11-29T04:49:17.659Z,95100.56
2017-11-29T04:51:45.302Z,95102.66
2017-11-29T04:54:12.912Z,95101.71
2017-11-29T04:56:40.537Z,95104.69
2017-11-29T04:59:08.144Z,95104.31
2017-11-29T05:01:35.850Z,95103.80
2017-11-29T05:04:03.477Z,95106.67
2017-11-29T05:06:31.150Z,95106.42
2017-11-29T05:08:58.772Z,95109.51
2017-11-29T05:11:26.451Z,95106.44
2017-11-29T05:13:54.023Z,95097.72
2017-11-29T05:16:21.638Z,95100.41
2017-11-29T05:18:49.289Z,95095.42
2017-11-29T05:21:16.871Z,95101.30
2017-11-29T05:23:44.473Z,95101.52
2017-11-29T05:26:12.060Z,95102.44
2017-11-29T05:28:39.679Z,95104.34
2017-11-29T05:31:07.306Z,95101.72
2017-11-29T05:33:34.978Z,95100.52
2017-11-29T05:36:02.579Z,95109.92
2017-11-29T05:38:30.187Z,95110.57
2017-11-29T05:43:29.640Z,95107.29
2017-11-29T05:45:57.249Z,95110.33
2017-11-29T05:48:24.898Z,95108.13
2017-11-29T05:50:52.478Z,95108.97
2017-11-29T05:53:20.068Z,95104.92
2017-11-29T05:55:47.696Z,95108.83
2017-11-29T05:58:15.269Z,95105.31
2017-11-29T06:00:42.854Z,95109.56
2017-11-29T06:03:10.733Z,95108.45
2017-11-29T06:05:38.327Z,95116.57
2017-11-29T06:08:05.907Z,95111.33
2017-11-29T06:10:33.497Z,95110.58
2017-11-29T06:13:01.096Z,95104.54
2017-11-29T06:15:28.685Z,95108.02
2017-11-29T06:17:56.298Z,95106.21
2017-11-29T06:20:23.869Z,95117.20
2017-11-29T06:22:51.453Z,95113.59
2017-11-29T06:25:19.042Z,95114.80
2017-11-29T06:27:46.609Z,95120.52
2017-11-29T06:30:14.202Z,95122.94
2017-11-29T06:32:41.771Z,95122.50
2017-11-29T06:35:09.435Z,95125.64
2017-11-29T06:37:37.029Z,95118.28
2017-11-29T06:40:04.643Z,95124.48
2017-11-29T06:42:32.231Z,95128.08
2017-11-29T06:44:59.805Z,95123.19
2017-11-29T06:47:27.432Z,95123.50
2017-11-29T06:49:54.988Z,95118.19
2017-11-29T06:52:22.891Z,95127.78
2017-11-29T06:54:50.550Z,95123.14
2017-11-29T06:57:18.182Z,95132.73
2017-11-29T06:59:45.750Z,95130.75
2017-11-29T07:02:14.124Z,95130.37
2017-11-29T07:04:42.311Z,95131.18
2017-11-29T07:07:10.595Z,95144.61
2017-11-29T07:09:38.196Z,95135.91
2017-11-29T07:12:06.492Z,95128.20
2017-11-29T07:14:34.087Z,95130.80
2017-11-29T07:17:03.608Z,95133.36
2017-11-29T07:19:31.222Z,95131.82
2017-11-29T07:21:58.815Z,95122.30
2017-11-29T07:24:26.444Z,95131.80
2017-11-29T07:26:54.044Z,95146.56
2017-11-29T07:29:21.635Z,95142.88
2017-11-29T07:31:49.297Z,95145.03
2017-11-29T07:34:16.867Z,95160.59
2017-11-29T07:36:44.423Z,95164.64
2017-11-29T07:39:12.315Z,95170.80
2017-11-29T07:41:39.859Z,95171.24
2017-11-29T07:44:07.443Z,95169.39
2017-11-29T07:46:35.265Z,95172.77
2017-11-29T07:49:02.852Z,95170.57
2017-11-29T07:51:30.409Z,95170.64
2017-11-29T07:53:58.026Z,95161.52
2017-11-29T07:56:25.606Z,95162.09
2017-11-29T07:58:53.180Z,95166.66
2017-11-29T08:01:21.016Z,95169.42
2017-11-29T08:03:48.680Z,95163.72
2017-11-29T08:06:16.278Z,95162.26
2017-11-29T08:08:43.879Z,95168.36
2017-11-29T08:11:11.642Z,95177.00
2017-11-29T08:13:39.219Z,95170.98
2017-11-29T08:16:07.644Z,95175.72
2017-11-29T08:18:35.193Z,95166.25
2017-11-29T08:21:02.772Z,95174.97
2017-11-29T08:23:30.363Z,95174.34
2017-11-29T08:25:57.943Z,95168.20
2017-11-29T08:28:25.639Z,95163.95
2017-11-29T08:30:53.223Z,95163.75
2017-11-29T08:33:20.937Z,95167.75
2017-11-29T08:35:48.627Z,95164.70
2017-11-29T08:38:16.241Z,95168.27
2017-11-29T08:40:43.905Z,95162.66
2017-11-29T08:43:11.696Z,95155.33
2017-11-29T08:45:39.320Z,95154.66
2017-11-29T08:48:06.908Z,95152.92
2017-11-29T08:50:34.515Z,95157.45
2017-11-29T08:53:02.141Z,95163.72
2017-11-29T08:55:29.761Z,95150.47
2017-11-29T08:57:57.354Z,95153.37
2017-11-29T09:00:25.016Z,95154.43
2017-11-29T09:02:52.609Z,95158.72
2017-11-29T09:05:20.225Z,95155.23
2017-11-29T09:07:47.784Z,95151.02
2017-11-29T09:10:15.381Z,95150.42
2017-11-29T09:12:43.011Z,95148.30
2017-11-29T09:15:10.795Z,95146.56
2017-11-29T09:17:38.411Z,95142.41
2017-11-29T09:20:05.980Z,95143.89
2017-11-29T09:22:33.564Z,95143.02
2017-11-29T09:25:01.258Z,95139.88
2017-11-29T09:27:28.917Z,95139.85
2017-11-29T09:29:56.479Z,95135.67
2017-11-29T09:32:24.092Z,95135.35
2017-11-29T09:34:51.713Z,95131.47
2017-11-29T09:37:19.274Z,95127.66
2017-11-29T09:39:46.955Z,95126.91
2017-11-29T09:42:14.733Z,95129.94
2017-11-29T09:44:42.611Z,95125.47
2017-11-29T09:47:10.470Z,95122.45
2017-11-29T09:49:38.108Z,95112.11
2017-11-29T09:52:05.678Z,95107.78
2017-11-29T09:54:33.365Z,95113.87
2017-11-29T09:57:01.004Z,95113.00
2017-11-29T09:59:28.640Z,95108.23
2017-11-29T10:01:56.331Z,95104.50
2017-11-29T10:04:23.979Z,95102.81
2017-11-29T10:06:51.562Z,95104.78
2017-11-29T10:09:19.148Z,95106.00
2017-11-29T10:11:46.796Z,95104.31
2017-11-29T10:14:14.433Z,95103.30
2017-11-29T10:16:42.076Z,95104.73
2017-11-29T10:19:09.899Z,95103.34
2017-11-29T10:21:37.623Z,95092.45
2017-11-29T10:24:05.325Z,95094.01
2017-11-29T10:26:32.920Z,95096.80
2017-11-29T10:29:00.534Z,95094.70
2017-11-29T10:31:28.286Z,95085.83
2017-11-29T10:33:55.842Z,95085.55
2017-11-29T10:36:23.443Z,95088.03
2017-11-29T10:38:51.084Z,95083.57
2017-11-29T10:41:18.639Z,95086.23
2017-11-29T10:43:46.239Z,95078.45
2017-11-29T10:46:13.873Z,95074.76
2017-11-29T10:48:41.514Z,95068.31
2017-11-29T10:51:09.190Z,95073.48
2017-11-29T10:53:36.831Z,95074.74
2017-11-29T10:56:04.443Z,95068.67
2017-11-29T10:58:32.338Z,95073.51
2017-11-29T11:00:59.916Z,95077.53
2017-11-29T11:03:27.506Z,95079.03
2017-11-29T11:05:55.134Z,95076.81
2017-11-29T11:08:22.713Z,95087.32
2017-11-29T11:10:50.340Z,95091.13
2017-11-29T11:13:18.019Z,95090.30
2017-11-29T11:15:45.600Z,95090.56
2017-11-29T11:18:13.231Z,95085.44
2017-11-29T11:20:40.908Z,95087.15
2017-11-29T11:23:08.645Z,95080.95
2017-11-29T11:25:36.499Z,95090.09
2017-11-29T11:28:04.268Z,95077.69
2017-11-29T11:30:31.965Z,95080.76
2017-11-29T11:32:59.614Z,95080.11
2017-11-29T11:35:27.259Z,95083.64
2017-11-29T11:37:55.253Z,95077.56
2017-11-29T11:40:22.860Z,95081.28
2017-11-29T11:42:50.502Z,95069.25
2017-11-29T11:45:18.196Z,95068.05
2017-11-29T11:47:45.779Z,95073.01
2017-11-29T11:50:13.400Z,95074.80
2017-11-29T11:52:41.094Z,95072.73
2017-11-29T11:55:10.098Z,95066.47
2017-11-29T11:57:38.167Z,95060.60
2017-11-29T12:00:06.151Z,95066.21
2017-11-29T12:02:33.721Z,95066.30
2017-11-29T12:07:51.695Z,95060.81
2017-11-29T12:10:19.310Z,95065.12
2017-11-29T12:12:46.955Z,95059.12
2017-11-29T12:15:14.592Z,95055.00
2017-11-29T12:17:42.200Z,95052.64
2017-11-29T12:20:09.856Z,95050.00
2017-11-29T12:22:37.440Z,95047.41
2017-11-29T12:25:05.011Z,95043.67
2017-11-29T12:27:32.631Z,95049.50
2017-11-29T12:30:00.265Z,95049.33
2017-11-29T12:32:27.909Z,95043.44
2017-11-29T12:34:55.534Z,95046.11
2017-11-29T12:37:23.116Z,95050.25
2017-11-29T12:39:51.208Z,95051.30
2017-11-29T12:42:19.204Z,95053.20
2017-11-29T12:44:46.828Z,95045.00
2017-11-29T12:47:16.260Z,95045.91
2017-11-29T12:49:55.902Z,95046.84
2017-11-29T12:52:24.689Z,95038.70
2017-11-29T12:54:53.283Z,95038.47
2017-11-29T12:57:20.849Z,95035.99
2017-11-29T12:59:48.911Z,95027.78
2017-11-29T13:02:16.813Z,95030.97
2017-11-29T13:04:44.393Z,95035.41
2017-11-29T13:07:12.248Z,95030.40
2017-11-29T13:09:40.103Z,95017.62
2017-11-29T13:12:07.678Z,95015.77
2017-11-29T13:14:35.283Z,95010.92
2017-11-29T13:17:02.985Z,95010.06
2017-11-29T13:19:30.561Z,95012.59
2017-11-29T13:21:58.546Z,95016.83
2017-11-29T13:24:26.383Z,95015.30
2017-11-29T13:26:54.046Z,95009.71
2017-11-29T13:29:22.363Z,95015.04
2017-11-29T13:31:50.090Z,95017.75
2017-11-29T13:34:17.683Z,95017.95
2017-11-29T13:36:45.337Z,95009.75
2017-11-29T13:39:12.951Z,95018.37
2017-11-29T13:41:40.530Z,95016.56
2017-11-29T13:44:08.103Z,95014.27
2017-11-29T13:46:35.794Z,95010.70
2017-11-29T13:49:03.378Z,95013.70
2017-11-29T13:51:30.986Z,95006.43
2017-11-29T13:53:58.642Z,95004.30
2017-11-29T13:56:26.257Z,94999.73
2017-11-29T13:58:53.851Z,94992.73
2017-11-29T14:01:21.415Z,94997.31
2017-11-29T14:03:49.065Z,94995.52
2017-11-29T14:06:16.673Z,94995.28
2017-11-29T14:08:44.226Z,94995.68
2017-11-29T14:11:11.799Z,94996.16
2017-11-29T14:13:39.388Z,94996.56
2017-11-29T14:16:06.947Z,94994.95
2017-11-29T14:18:34.495Z,94998.61
2017-11-29T14:21:02.063Z,94997.88
2017-11-29T14:23:30.139Z,94991.13
2017-11-29T14:25:57.928Z,94996.09
2017-11-29T14:28:25.719Z,94990.89
2017-11-29T14:30:53.306Z,94986.56
2017-11-29T14:33:20.973Z,94993.02
2017-11-29T14:35:48.638Z,94991.75
2017-11-29T14:38:16.284Z,94994.16
2017-11-29T14:40:43.880Z,94994.16
2017-11-29T14:43:11.743Z,94991.98
2017-11-29T14:45:39.419Z,94994.42
2017-11-29T14:48:07.191Z,95002.08
2017-11-29T14:50:34.816Z,95005.25
2017-11-29T14:53:02.386Z,95000.44
2017-11-29T14:55:30.299Z,95003.81
2017-11-29T14:57:57.885Z,95006.58
2017-11-29T15:00:25.444Z,95003.14
2017-11-29T15:02:53.012Z,95007.97
2017-11-29T15:05:20.636Z,95003.83
2017-11-29T15:07:49.241Z,95000.66
2017-11-29T15:10:16.811Z,95012.55
2017-11-29T15:12:44.429Z,95009.20
2017-11-29T15:15:12.043Z,95011.73
2017-11-29T15:17:39.687Z,95007.16
2017-11-29T15:20:07.302Z,95006.34
2017-11-29T15:22:34.897Z,95010.71
2017-11-29T15:25:02.565Z,95007.02
2017-11-29T15:27:30.269Z,95010.00
2017-11-29T15:29:58.731Z,94993.06
2017-11-29T15:32:26.843Z,95000.64
2017-11-29T15:34:55.860Z,94998.48
2017-11-29T15:37:23.752Z,95005.05
2017-11-29T15:39:51.352Z,95000.83
2017-11-29T15:42:18.995Z,94999.68
2017-11-29T15:44:46.568Z,94992.98
2017-11-29T15:47:14.575Z,94992.68
2017-11-29T15:49:42.201Z,94998.99
2017-11-29T15:52:11.216Z,95002.09
2017-11-29T15:54:40.147Z,95002.39
2017-11-29T15:57:07.761Z,95008.25
2017-11-29T15:59:35.334Z,95009.81
2017-11-29T16:02:02.910Z,95006.98
2017-11-29T16:04:30.556Z,95007.80
2017-11-29T16:06:58.158Z,95010.63
2017-11-29T16:09:26.343Z,95010.04
2017-11-29T16:11:54.285Z,95006.31
2017-11-29T16:14:21.962Z,95002.70
2017-11-29T16:16:49.573Z,95000.34
2017-11-29T16:19:17.918Z,95000.50
2017-11-29T16:21:47.485Z,94998.88
2017-11-29T16:24:15.665Z,94997.64
2017-11-29T16:26:43.324Z,94991.91
2017-11-29T16:29:11.455Z,94983.60
2017-11-29T16:31:39.036Z,94980.81
2017-11-29T16:34:06.633Z,94980.14
2017-11-29T16:36:34.225Z,94972.42
2017-11-29T16:39:01.845Z,94975.13
2017-11-29T16:41:29.450Z,94968.58
2017-11-29T16:43:57.314Z,94972.33
2017-11-29T16:46:25.846Z,94976.31
2017-11-29T16:48:53.531Z,94979.23
2017-11-29T16:51:21.652Z,94981.43
2017-11-29T16:53:49.401Z,94983.14
2017-11-29T16:56:16.972Z,94985.46
2017-11-29T16:58:44.662Z,94986.74
2017-11-29T17:01:12.252Z,94995.10
2017-11-29T17:03:39.867Z,94990.41
2017-11-29T17:06:07.475Z,95004.41
2017-11-29T17:08:40.059Z,95001.32
2017-11-29T17:11:07.769Z,95000.50
2017-11-29T17:13:35.412Z,95002.71
2017-11-29T17:16:05.022Z,95000.25
2017-11-29T17:18:32.577Z,94991.08
2017-11-29T17:21:00.222Z,94986.81
2017-11-29T17:23:27.992Z,94991.52
2017-11-29T17:25:55.622Z,94983.77
2017-11-29T17:28:23.225Z,94976.93
2017-11-29T17:30:50.856Z,94976.33
2017-11-29T17:33:18.443Z,94977.03
2017-11-29T17:35:46.023Z,94975.94
2017-11-29T17:38:13.802Z,94967.08
2017-11-29T17:40:41.389Z,94964.63
2017-11-29T17:43:09.316Z,94967.52
2017-11-29T17:45:36.950Z,94969.25
2017-11-29T17:48:04.533Z,94969.09
2017-11-29T17:50:32.818Z,94975.98
2017-11-29T17:53:00.405Z,94982.79
2017-11-29T17:55:27.952Z,94971.95
2017-11-29T17:57:55.555Z,94968.39
2017-11-29T18:00:23.169Z,94966.69
2017-11-29T18:02:50.757Z,94972.79
2017-11-29T18:05:18.396Z,94967.42
2017-11-29T18:07:46.092Z,94961.09
2017-11-29T18:10:13.715Z,94950.95
2017-11-29T18:12:41.267Z,94947.47
2017-11-29T18:15:08.932Z,94947.10
2017-11-29T18:17:36.736Z,94949.90
2017-11-29T18:20:04.309Z,94957.19
2017-11-29T18:22:31.886Z,94962.59
2017-11-29T18:24:59.492Z,94960.28
2017-11-29T18:27:27.105Z,94963.25
2017-11-29T18:29:54.709Z,94957.99
2017-11-29T18:32:22.366Z,94955.27
2017-11-29T18:34:49.994Z,94951.62
2017-11-29T18:37:17.564Z,94950.23
2017-11-29T18:39:45.255Z,94944.41
2017-11-29T18:42:13.096Z,94938.29
2017-11-29T18:44:40.897Z,94939.92
2017-11-29T18:47:08.543Z,94931.27
2017-11-29T18:49:36.189Z,94928.31
2017-11-29T18:52:03.744Z,94939.09
2017-11-29T18:54:31.493Z,94938.48
2017-11-29T18:56:59.085Z,94935.95
2017-11-29T18:59:26.666Z,94933.33
2017-11-29T19:01:54.410Z,94930.28
2017-11-29T19:04:22.021Z,94921.44
2017-11-29T19:06:49.614Z,94905.72
2017-11-29T19:09:17.237Z,94897.83
2017-11-29T19:11:44.895Z,94893.55
2017-11-29T19:14:12.518Z,94897.23
2017-11-29T19:16:40.167Z,94905.78
2017-11-29T19:19:08.743Z,94905.56
2017-11-29T19:21:36.310Z,94909.41
2017-11-29T19:24:03.911Z,94913.20
2017-11-29T19:26:31.500Z,94916.48
2017-11-29T19:28:59.422Z,94913.44
2017-11-29T19:31:27.027Z,94914.94
2017-11-29T19:33:54.584Z,94918.67
2017-11-29T19:36:22.168Z,94923.55
2017-11-29T19:38:49.811Z,94922.73
2017-11-29T19:41:17.391Z,94925.30
2017-11-29T19:43:45.021Z,94921.02
2017-11-29T19:46:13.487Z,94915.38
2017-11-29T19:48:42.765Z,94923.03
2017-11-29T19:51:10.593Z,94922.39
2017-11-29T19:53:38.224Z,94915.17
2017-11-29T19:56:08.737Z,94913.53
2017-11-29T19:58:36.509Z,94916.98
2017-11-29T20:01:04.128Z,94909.30
2017-11-29T20:03:31.691Z,94908.36
2017-11-29T20:05:59.301Z,94901.25
2017-11-29T20:08:26.897Z,94907.63
2017-11-29T20:10:54.459Z,94904.78
2017-11-29T20:13:22.256Z,94899.34
2017-11-29T20:15:49.870Z,94890.33
2017-11-29T20:18:17.470Z,94893.03
2017-11-29T20:20:45.473Z,94899.46
2017-11-29T20:23:13.097Z,94901.75
2017-11-29T20:25:40.725Z,94915.70
2017-11-29T20:28:08.395Z,94917.67
2017-11-29T20:30:36.566Z,94920.47
2017-11-29T20:33:04.219Z,94921.02
2017-11-29T20:35:32.647Z,94914.30
2017-11-29T20:38:00.218Z,94917.13
2017-11-29T20:40:27.896Z,94912.08
2017-11-29T20:42:55.551Z,94910.06
2017-11-29T20:45:23.569Z,94904.50
2017-11-29T20:47:51.140Z,94903.76
2017-11-29T20:50:18.728Z,94908.18
2017-11-29T20:52:55.198Z,94909.28
2017-11-29T20:55:22.772Z,94907.13
2017-11-29T20:57:50.378Z,94899.43
2017-11-29T21:00:17.965Z,94895.19
2017-11-29T21:02:45.540Z,94898.09
2017-11-29T21:05:13.304Z,94900.41
2017-11-29T21:07:41.106Z,94891.49
2017-11-29T21:10:08.706Z,94885.45
2017-11-29T21:12:36.371Z,94881.35
2017-11-29T21:15:04.016Z,94879.60
2017-11-29T21:17:31.692Z,94878.34
2017-11-29T21:19:59.394Z,94877.13
2017-11-29T21:22:27.006Z,94885.48
2017-11-29T21:24:54.677Z,94871.25
2017-11-29T21:27:22.239Z,94868.28
2017-11-29T21:29:49.826Z,94864.44
2017-11-29T21:32:17.458Z,94870.97
2017-11-29T21:34:45.010Z,94861.70
2017-11-29T21:37:12.700Z,94851.04
2017-11-29T21:39:40.270Z,94840.96
2017-11-29T21:42:07.840Z,94844.72
2017-11-29T21:44:35.474Z,94848.02
2017-11-29T21:47:03.072Z,94845.59
2017-11-29T21:49:30.971Z,94862.94
2017-11-29T21:51:58.572Z,94870.63
2017-11-29T21:54:26.197Z,94867.12
2017-11-29T21:56:53.767Z,94859.14
2017-11-29T21:59:21.377Z,94858.30
2017-11-29T22:01:48.980Z,94852.27
2017-11-29T22:04:16.574Z,94851.93
2017-11-29T22:06:44.136Z,94840.30
2017-11-29T22:09:11.851Z,94836.06
2017-11-29T22:11:39.509Z,94837.22
2017-11-29T22:14:07.244Z,94836.60
2017-11-29T22:16:34.823Z,94838.05
2017-11-29T22:19:02.441Z,94842.73
2017-11-29T22:21:30.055Z,94835.91
2017-11-29T22:23:57.635Z,94826.63
2017-11-29T22:26:25.253Z,94815.30
2017-11-29T22:28:52.840Z,94807.82
2017-11-29T22:31:20.424Z,94813.69
2017-11-29T22:33:48.008Z,94814.44
2017-11-29T22:36:15.584Z,94805.77
2017-11-29T22:38:43.163Z,94805.86
2017-11-29T22:41:10.856Z,94811.83
2017-11-29T22:43:38.430Z,94809.73
2017-11-29T22:46:06.021Z,94799.62
2017-11-29T22:48:33.634Z,94790.92
2017-11-29T22:51:01.216Z,94793.66
2017-11-29T22:53:28.784Z,94797.85
2017-11-29T22:55:56.364Z,94793.55
2017-11-29T22:58:24.047Z,94786.66
2017-11-29T23:00:51.660Z,94784.67
2017-11-29T23:03:19.264Z,94777.52
2017-11-29T23:05:46.816Z,94781.25
2017-11-29T23:08:14.375Z,94776.62
2017-11-29T23:10:41.958Z,94766.26
2017-11-29T23:13:10.218Z,94756.11
2017-11-29T23:15:37.845Z,94752.39
2017-11-29T23:18:05.731Z,94759.83
2017-11-29T23:20:33.279Z,94764.92
2017-11-29T23:23:00.866Z,94762.25
2017-11-29T23:25:29.487Z,94761.83
2017-11-29T23:27:57.171Z,94764.43
2017-11-29T23:30:24.732Z,94770.94
2017-11-29T23:32:53.907Z,94773.13
2017-11-29T23:35:21.984Z,94780.02
2017-11-29T23:37:49.623Z,94781.04
2017-11-29T23:40:17.219Z,94784.62
2017-11-29T23:42:44.793Z,94795.89
2017-11-29T23:45:12.389Z,94780.52
2017-11-29T23:47:39.939Z,94768.61
2017-11-29T23:50:07.526Z,94754.10
2017-11-29T23:52:35.180Z,94744.17
2017-11-29T23:55:02.786Z,94736.37
2017-11-29T23:57:30.354Z,94736.17
2017-11-29T23:59:57.939Z,94738.05
